Time;durP1;ratioP1;P1;durP2;ratioP2;P2;SDS_P1;SDS_P2;PMS_P1;PMS_P2;Temp;Humidity;BMP_temperature;BMP_pressure;BME280_temperature;BME280_humidity;BME280_pressure;Samples;Min_cycle;Max_cycle;Signal;HPM_P1;HPM_P2
2021/04/05 00:00:25;;;;;;;7.45;3.58;;;19.70;33.30;;;;;;5075560;28;20035;-74
2021/04/05 00:02:51;;;;;;;7.55;3.85;;;19.70;33.30;;;;;;5075306;28;20104;-74
2021/04/05 00:05:20;;;;;;;8.70;4.13;;;19.60;33.40;;;;;;5075567;28;20150;-73
2021/04/05 00:07:48;;;;;;;6.68;3.47;;;19.70;33.40;;;;;;5074986;28;20036;-73
2021/04/05 00:10:20;;;;;;;8.23;3.80;;;19.60;33.40;;;;;;5074825;28;20056;-74
2021/04/05 00:12:46;;;;;;;6.07;3.55;;;19.60;33.40;;;;;;5073989;28;20066;-74
2021/04/05 00:15:12;;;;;;;6.70;3.20;;;19.70;33.40;;;;;;5075341;28;20020;-74
2021/04/05 00:17:39;;;;;;;5.63;3.20;;;19.60;33.40;;;;;;5074977;28;20028;-74
2021/04/05 00:20:15;;;;;;;7.10;3.70;;;19.60;33.40;;;;;;5074453;28;20052;-73
2021/04/05 00:22:42;;;;;;;6.47;3.30;;;19.60;33.40;;;;;;5074821;28;20028;-74
2021/04/05 00:25:09;;;;;;;6.63;3.20;;;19.60;33.40;;;;;;5074831;28;20100;-73
2021/04/05 00:27:35;;;;;;;7.25;3.42;;;19.60;33.40;;;;;;5074523;28;20020;-74
2021/04/05 00:30:01;;;;;;;8.63;3.42;;;19.60;33.40;;;;;;5074581;28;20451;-74
2021/04/05 00:32:26;;;;;;;7.18;3.33;;;19.60;33.40;;;;;;5074687;28;20052;-74
2021/04/05 00:34:52;;;;;;;6.60;3.50;;;19.60;33.40;;;;;;5074364;28;20028;-74
2021/04/05 00:37:18;;;;;;;6.20;3.38;;;19.60;33.40;;;;;;5074449;28;20028;-74
2021/04/05 00:39:43;;;;;;;7.57;3.47;;;19.60;33.40;;;;;;5074739;28;20472;-73
2021/04/05 00:42:09;;;;;;;7.53;3.40;;;19.60;33.40;;;;;;5074254;28;20099;-73
2021/04/05 00:44:35;;;;;;;6.35;3.25;;;19.60;33.40;;;;;;5074311;28;20024;-74
2021/04/05 00:47:02;;;;;;;7.82;3.75;;;19.60;33.40;;;;;;5074149;28;20016;-74
2021/04/05 00:49:28;;;;;;;7.90;3.58;;;19.60;33.40;;;;;;5074118;28;20024;-74
2021/04/05 00:51:53;;;;;;;7.10;3.33;;;19.60;33.40;;;;;;5074158;28;20123;-74
2021/04/05 00:54:19;;;;;;;6.78;3.20;;;19.60;33.40;;;;;;5074011;28;20023;-74
2021/04/05 00:56:46;;;;;;;6.97;3.20;;;19.60;33.40;;;;;;5074484;28;20040;-73
2021/04/05 00:59:12;;;;;;;7.72;3.50;;;19.60;33.40;;;;;;5074120;28;20544;-74
2021/04/05 01:01:37;;;;;;;6.38;3.08;;;19.60;33.50;;;;;;5074705;28;20047;-74
2021/04/05 01:04:03;;;;;;;6.72;3.60;;;19.60;33.50;;;;;;5074964;28;20025;-74
2021/04/05 01:06:31;;;;;;;6.63;3.20;;;19.60;33.40;;;;;;5074223;28;20017;-74
2021/04/05 01:08:57;;;;;;;6.95;3.20;;;19.60;33.40;;;;;;5072610;28;20044;-74
2021/04/05 01:11:28;;;;;;;6.55;3.15;;;19.60;33.50;;;;;;5073982;28;20020;-74
2021/04/05 01:13:55;;;;;;;7.22;3.33;;;19.50;33.50;;;;;;5073678;28;20029;-73
2021/04/05 01:16:28;;;;;;;6.43;3.25;;;19.50;33.50;;;;;;5073795;28;20099;-73
2021/04/05 01:18:54;;;;;;;9.90;3.57;;;19.50;33.50;;;;;;5073673;28;20028;-73
2021/04/05 01:21:21;;;;;;;7.80;3.35;;;19.50;33.50;;;;;;5073420;28;20049;-73
2021/04/05 01:23:46;;;;;;;6.57;3.10;;;19.50;33.40;;;;;;5073577;28;20104;-73
2021/04/05 01:26:12;;;;;;;6.22;3.22;;;19.50;33.40;;;;;;5073602;28;20150;-73
2021/04/05 01:28:38;;;;;;;8.98;3.10;;;19.50;33.50;;;;;;5073999;28;20489;-73
2021/04/05 01:31:04;;;;;;;6.68;2.80;;;19.50;33.50;;;;;;5073982;28;20036;-73
2021/04/05 01:33:35;;;;;;;5.50;3.03;;;19.50;33.50;;;;;;5073557;28;20079;-73
2021/04/05 01:36:08;;;;;;;6.80;3.28;;;19.50;33.50;;;;;;5073465;28;20025;-73
2021/04/05 01:38:42;;;;;;;8.70;3.53;;;19.50;33.50;;;;;;5073646;28;20027;-73
2021/04/05 01:41:12;;;;;;;6.55;3.55;;;19.50;33.50;;;;;;5072175;28;20506;-73
2021/04/05 01:43:39;;;;;;;6.15;3.35;;;19.50;33.50;;;;;;5071968;28;20029;-73
2021/04/05 01:46:06;;;;;;;6.25;2.90;;;19.50;33.50;;;;;;5073459;28;20024;-73
2021/04/05 01:48:32;;;;;;;7.00;3.25;;;19.50;33.50;;;;;;5073111;28;20139;-73
2021/04/05 01:50:58;;;;;;;5.43;2.85;;;19.50;33.50;;;;;;5073373;28;20557;-73
2021/04/05 01:53:23;;;;;;;6.57;2.83;;;19.50;33.50;;;;;;5073470;28;20016;-73
2021/04/05 01:55:49;;;;;;;9.85;3.38;;;19.50;33.50;;;;;;5073255;28;20037;-73
2021/04/05 01:58:19;;;;;;;6.95;3.25;;;19.50;33.50;;;;;;5073550;28;20027;-73
2021/04/05 02:00:47;;;;;;;6.78;3.17;;;19.50;33.50;;;;;;5073518;28;20063;-74
2021/04/05 02:03:13;;;;;;;7.32;3.10;;;19.50;33.50;;;;;;5072968;28;20078;-72
2021/04/05 02:05:46;;;;;;;7.55;2.80;;;19.50;33.50;;;;;;5073305;28;20047;-73
2021/04/05 02:08:11;;;;;;;6.45;3.13;;;19.50;33.50;;;;;;5073600;28;20057;-74
2021/04/05 02:10:37;;;;;;;6.28;3.00;;;19.50;33.60;;;;;;5073198;28;20094;-73
2021/04/05 02:13:04;;;;;;;5.57;2.85;;;19.50;33.50;;;;;;5073274;28;20033;-73
2021/04/05 02:15:33;;;;;;;6.82;3.00;;;19.50;33.60;;;;;;5073309;28;20039;-74
2021/04/05 02:17:58;;;;;;;6.40;2.72;;;19.50;33.60;;;;;;5073208;28;20024;-73
2021/04/05 02:20:24;;;;;;;6.13;2.88;;;19.50;33.60;;;;;;5073278;28;20380;-74
2021/04/05 02:22:52;;;;;;;7.22;3.75;;;19.50;33.60;;;;;;5073028;28;20093;-73
2021/04/05 02:25:20;;;;;;;7.25;3.25;;;19.50;33.60;;;;;;5072801;28;20377;-74
2021/04/05 02:27:47;;;;;;;6.68;3.47;;;19.50;33.60;;;;;;5073044;28;20029;-73
2021/04/05 02:30:22;;;;;;;9.27;3.28;;;19.50;33.60;;;;;;5072931;28;20032;-73
2021/04/05 02:32:54;;;;;;;5.88;3.00;;;19.50;33.60;;;;;;5073186;28;20052;-73
2021/04/05 02:35:24;;;;;;;6.00;2.80;;;19.50;33.60;;;;;;5073023;28;20020;-74
2021/04/05 02:37:51;;;;;;;6.38;3.17;;;19.50;33.60;;;;;;5077258;28;20016;-73
2021/04/05 02:40:17;;;;;;;5.75;2.78;;;19.50;33.60;;;;;;5076817;28;20028;-73
2021/04/05 02:42:45;;;;;;;7.63;3.17;;;19.50;33.60;;;;;;5076635;28;20107;-73
2021/04/05 02:45:12;;;;;;;6.63;2.95;;;19.50;33.60;;;;;;5078515;28;20034;-74
2021/04/05 02:47:38;;;;;;;8.82;3.05;;;19.50;33.60;;;;;;5076307;28;20024;-74
2021/04/05 02:50:05;;;;;;;6.72;2.88;;;19.50;33.60;;;;;;5076432;28;20078;-74
2021/04/05 02:52:34;;;;;;;8.57;3.17;;;19.50;33.60;;;;;;5076196;28;20020;-74
2021/04/05 02:55:00;;;;;;;7.18;3.00;;;19.50;33.60;;;;;;5076566;28;20420;-74
2021/04/05 02:57:26;;;;;;;6.78;2.83;;;19.50;33.60;;;;;;5076357;28;20035;-73
2021/04/05 02:59:53;;;;;;;5.75;2.45;;;19.50;33.60;;;;;;5076342;28;20029;-73
2021/04/05 03:02:18;;;;;;;5.75;3.03;;;19.50;33.60;;;;;;5076142;28;20097;-73
2021/04/05 03:04:44;;;;;;;6.60;2.83;;;19.50;33.70;;;;;;5076375;28;20423;-74
2021/04/05 03:07:10;;;;;;;5.47;2.60;;;19.50;33.60;;;;;;5076236;28;20439;-73
2021/04/05 03:09:35;;;;;;;7.30;2.90;;;19.50;33.70;;;;;;5076099;28;20113;-74
2021/04/05 03:12:02;;;;;;;6.88;3.25;;;19.40;33.70;;;;;;5076143;28;20380;-73
2021/04/05 03:14:28;;;;;;;7.82;2.95;;;19.50;33.70;;;;;;5076410;28;20062;-73
2021/04/05 03:16:56;;;;;;;6.03;3.33;;;19.50;33.70;;;;;;5076017;28;20020;-73
2021/04/05 03:19:23;;;;;;;7.25;2.60;;;19.50;33.70;;;;;;5076263;28;20063;-73
2021/04/05 03:21:49;;;;;;;6.28;3.05;;;19.50;33.70;;;;;;5076023;28;20040;-73
2021/04/05 03:24:15;;;;;;;5.65;2.55;;;19.50;33.70;;;;;;5075705;28;20047;-73
2021/04/05 03:26:40;;;;;;;5.75;2.60;;;19.40;33.70;;;;;;5075741;28;20457;-73
2021/04/05 03:29:09;;;;;;;4.72;2.50;;;19.50;33.70;;;;;;5075639;28;20504;-73
2021/04/05 03:31:38;;;;;;;5.80;2.92;;;19.40;33.70;;;;;;5075757;28;20029;-73
2021/04/05 03:34:22;;;;;;;6.85;3.00;;;19.40;33.70;;;;;;5075673;28;20021;-73
2021/04/05 03:36:58;;;;;;;6.55;2.65;;;19.40;33.70;;;;;;5076087;28;20029;-72
2021/04/05 03:39:25;;;;;;;7.93;3.05;;;19.40;33.70;;;;;;5075739;28;20491;-74
2021/04/05 03:42:11;;;;;;;5.93;2.95;;;19.40;33.70;;;;;;5075945;28;20029;-73
2021/04/05 03:44:52;;;;;;;8.60;2.65;;;19.40;33.70;;;;;;5075704;28;20021;-74
2021/04/05 03:47:29;;;;;;;6.63;3.00;;;19.40;33.70;;;;;;5074459;28;20108;-73
2021/04/05 03:50:14;;;;;;;6.32;2.95;;;19.40;33.80;;;;;;5075508;28;20062;-74
2021/04/05 03:52:48;;;;;;;6.05;2.38;;;19.40;33.70;;;;;;5075634;28;20027;-72
2021/04/05 03:55:18;;;;;;;7.25;2.90;;;19.40;33.80;;;;;;5075627;28;20048;-73
2021/04/05 03:57:47;;;;;;;7.93;2.83;;;19.40;33.80;;;;;;5075502;28;20028;-73
2021/04/05 04:00:17;;;;;;;5.43;2.67;;;19.40;33.80;;;;;;5075546;28;20039;-73
2021/04/05 04:02:47;;;;;;;7.20;3.15;;;19.40;33.80;;;;;;5075807;28;20027;-74
2021/04/05 04:08:23;;;;;;;5.38;2.58;;;19.40;33.80;;;;;;5076858;28;20021;-73
2021/04/05 04:10:33;;;;;;;4.82;2.30;;;19.40;33.80;;;;;;5073311;28;20125;-74
2021/04/05 04:13:03;;;;;;;6.93;2.70;;;19.40;33.80;;;;;;5075850;28;20021;-73
2021/04/05 04:15:29;;;;;;;6.43;2.53;;;19.40;33.80;;;;;;5076897;28;20111;-73
2021/04/05 04:17:56;;;;;;;5.05;2.58;;;19.50;33.70;;;;;;5075510;28;20100;-73
2021/04/05 04:20:25;;;;;;;6.32;2.67;;;19.50;33.70;;;;;;5075454;28;20487;-73
2021/04/05 04:22:51;;;;;;;6.45;2.58;;;19.50;33.70;;;;;;5075194;28;20032;-74
2021/04/05 04:25:17;;;;;;;5.72;2.30;;;19.50;33.70;;;;;;5075171;28;20013;-73
2021/04/05 04:27:45;;;;;;;4.93;2.35;;;19.50;33.70;;;;;;5074662;28;20028;-73
2021/04/05 04:30:16;;;;;;;5.70;2.65;;;19.50;33.70;;;;;;5073455;28;20032;-72
2021/04/05 04:32:42;;;;;;;5.18;2.55;;;19.50;33.70;;;;;;5075005;28;20016;-74
2021/04/05 04:35:11;;;;;;;5.97;2.40;;;19.50;33.70;;;;;;5074628;28;20103;-73
2021/04/05 04:37:40;;;;;;;8.43;3.08;;;19.60;33.70;;;;;;5074788;28;20067;-73
2021/04/05 04:40:07;;;;;;;6.07;2.67;;;19.60;33.70;;;;;;5074737;28;20078;-74
2021/04/05 04:42:32;;;;;;;6.72;2.70;;;19.60;33.60;;;;;;5074425;28;20036;-74
2021/04/05 04:44:58;;;;;;;4.75;2.33;;;19.60;33.60;;;;;;5074465;28;20032;-73
2021/04/05 04:47:24;;;;;;;5.97;2.75;;;19.70;33.60;;;;;;5074670;28;20027;-73
2021/04/05 04:49:49;;;;;;;5.78;2.58;;;19.70;33.60;;;;;;5074627;28;20045;-73
2021/04/05 04:52:15;;;;;;;6.90;2.78;;;19.70;33.60;;;;;;5074519;28;20060;-73
2021/04/05 04:54:40;;;;;;;5.75;2.63;;;19.70;33.60;;;;;;5074195;28;20426;-73
2021/04/05 04:57:06;;;;;;;8.00;2.58;;;19.70;33.70;;;;;;5074327;28;20081;-73
2021/04/05 04:59:33;;;;;;;5.00;2.22;;;19.70;33.60;;;;;;5074135;28;20504;-73
2021/04/05 05:01:59;;;;;;;5.55;2.40;;;19.70;33.70;;;;;;5074693;28;20021;-73
2021/04/05 05:04:27;;;;;;;6.13;2.67;;;19.70;33.70;;;;;;5074306;28;20488;-73
2021/04/05 05:06:55;;;;;;;5.78;2.20;;;19.80;33.70;;;;;;5074579;28;20038;-73
2021/04/05 05:09:22;;;;;;;7.10;2.38;;;19.80;33.70;;;;;;5074010;28;20031;-73
2021/04/05 05:11:47;;;;;;;6.80;2.22;;;19.80;33.70;;;;;;5074208;28;20246;-73
2021/04/05 05:14:15;;;;;;;6.38;2.30;;;19.80;33.70;;;;;;5073809;28;20520;-73
2021/04/05 05:16:41;;;;;;;5.72;2.25;;;19.80;33.70;;;;;;5073961;28;20510;-73
2021/04/05 05:19:06;;;;;;;5.68;2.50;;;19.80;33.70;;;;;;5073730;28;20499;-73
2021/04/05 05:21:53;;;;;;;7.18;2.17;;;19.80;33.70;;;;;;5073670;28;20052;-73
2021/04/05 05:24:25;;;;;;;6.75;2.50;;;19.80;33.70;;;;;;5073989;28;20017;-73
2021/04/05 05:26:53;;;;;;;6.80;2.60;;;19.80;33.70;;;;;;5073721;28;20059;-73
2021/04/05 05:29:21;;;;;;;5.20;2.25;;;19.80;33.70;;;;;;5073585;28;20033;-73
2021/04/05 05:31:47;;;;;;;6.22;2.25;;;19.90;33.70;;;;;;5073707;28;20020;-73
2021/04/05 05:34:14;;;;;;;5.18;2.40;;;19.80;33.80;;;;;;5073636;28;20305;-73
2021/04/05 05:36:42;;;;;;;7.82;2.95;;;19.80;33.80;;;;;;5073776;28;20031;-73
2021/04/05 05:39:08;;;;;;;9.07;2.65;;;19.80;33.80;;;;;;5073241;28;20464;-74
2021/04/05 05:41:40;;;;;;;4.72;2.38;;;19.90;33.80;;;;;;5073231;28;20077;-73
2021/04/05 05:44:13;;;;;;;8.73;2.83;;;19.80;33.80;;;;;;5073055;28;20024;-73
2021/04/05 05:46:44;;;;;;;7.30;3.00;;;19.80;33.80;;;;;;5073266;28;20521;-73
2021/04/05 05:49:25;;;;;;;6.60;2.50;;;19.90;33.80;;;;;;5073309;28;20037;-73
2021/04/05 05:51:57;;;;;;;5.57;2.30;;;19.90;33.80;;;;;;5073080;28;20035;-73
2021/04/05 05:54:49;;;;;;;7.57;2.47;;;19.90;33.80;;;;;;5073084;28;20052;-73
2021/04/05 05:57:42;;;;;;;8.20;2.78;;;19.90;33.90;;;;;;5073090;28;20484;-73
2021/04/05 06:00:13;;;;;;;6.78;2.40;;;19.90;33.80;;;;;;5073252;28;20074;-73
2021/04/05 06:03:20;;;;;;;4.97;2.33;;;19.90;33.90;;;;;;5073455;28;20075;-72
2021/04/05 06:06:01;;;;;;;7.43;2.92;;;19.90;33.90;;;;;;5073378;28;20169;-73
2021/04/05 06:09:07;;;;;;;7.15;2.78;;;19.90;33.90;;;;;;5073374;28;20048;-73
2021/04/05 06:11:52;;;;;;;7.18;2.28;;;19.90;33.90;;;;;;5075115;28;20040;-73
2021/04/05 06:14:20;;;;;;;;;;;19.90;33.90;;;;;;5077870;28;20020;-73
2021/04/05 06:17:05;;;;;;;8.65;3.00;;;19.90;33.90;;;;;;5077310;28;20257;-73
2021/04/05 06:19:39;;;;;;;;;;;19.90;34.00;;;;;;5077855;28;20495;-73
2021/04/05 06:22:20;;;;;;;5.03;2.20;;;19.90;34.00;;;;;;5077168;28;19939;-73
2021/04/05 06:24:59;;;;;;;5.53;2.28;;;19.90;34.00;;;;;;5077147;28;20027;-73
2021/04/05 06:27:33;;;;;;;6.38;2.13;;;19.90;34.00;;;;;;5077329;28;20029;-74
2021/04/05 06:30:25;;;;;;;7.18;2.67;;;19.90;34.00;;;;;;5077102;28;20506;-73
2021/04/05 06:32:59;;;;;;;6.82;2.58;;;19.90;34.00;;;;;;5081156;28;20037;-73
2021/04/05 06:36:07;;;;;;;5.32;2.10;;;20.00;34.00;;;;;;5079730;28;20025;-74
2021/04/05 06:38:57;;;;;;;6.00;2.35;;;19.90;34.00;;;;;;5055881;28;20172;-74
2021/04/05 06:42:07;;;;;;;6.47;2.22;;;20.00;34.00;;;;;;5077063;28;20029;-74
2021/04/05 06:44:44;;;;;;;5.80;2.60;;;19.90;34.00;;;;;;5077086;28;20617;-74
2021/04/05 06:47:37;;;;;;;6.57;2.65;;;19.90;34.10;;;;;;5077030;28;20020;-74
2021/04/05 06:50:11;;;;;;;6.43;2.17;;;20.00;34.10;;;;;;5076952;28;20033;-74
2021/04/05 06:52:58;;;;;;;6.83;2.47;;;19.90;34.10;;;;;;5076881;28;20025;-74
2021/04/05 06:55:49;;;;;;;8.00;2.25;;;20.00;34.10;;;;;;5076481;28;20032;-73
2021/04/05 06:58:18;;;;;;;4.97;2.10;;;20.00;34.10;;;;;;5076340;28;20016;-74
2021/04/05 07:01:05;;;;;;;5.22;2.03;;;19.90;34.10;;;;;;5076397;28;20409;-72
2021/04/05 07:03:59;;;;;;;7.35;2.25;;;20.00;34.10;;;;;;5076540;28;20177;-73
2021/04/05 07:06:51;;;;;;;5.65;2.35;;;20.00;34.10;;;;;;5076420;28;20024;-72
2021/04/05 07:09:33;;;;;;;5.28;2.47;;;20.00;34.20;;;;;;5076273;28;20060;-73
2021/04/05 07:12:11;;;;;;;6.50;2.47;;;20.00;34.10;;;;;;5076199;28;20052;-74
2021/04/05 07:14:37;;;;;;;5.00;1.90;;;20.00;34.10;;;;;;5076370;28;20056;-74
2021/04/05 07:17:18;;;;;;;5.95;2.50;;;20.00;34.20;;;;;;5076152;28;20052;-74
2021/04/05 07:19:44;;;;;;;4.13;1.90;;;20.00;34.10;;;;;;5075901;28;20024;-74
2021/04/05 07:22:47;;;;;;;5.63;2.45;;;20.00;34.20;;;;;;5074369;28;20048;-74
2021/04/05 07:25:22;;;;;;;6.65;2.20;;;20.00;34.20;;;;;;5075926;28;20490;-73
2021/04/05 07:28:02;;;;;;;7.05;2.45;;;20.00;34.20;;;;;;5075964;28;20116;-74
2021/04/05 07:30:41;;;;;;;7.15;2.50;;;20.00;34.30;;;;;;5074588;28;20041;-74
2021/04/05 07:33:17;;;;;;;6.03;2.42;;;20.00;34.30;;;;;;5075876;28;20032;-74
2021/04/05 07:36:20;;;;;;;5.10;2.10;;;20.00;34.30;;;;;;5075813;28;20025;-74
2021/04/05 07:39:20;;;;;;;5.13;2.22;;;20.00;34.30;;;;;;5075570;28;20392;-73
2021/04/05 07:42:01;;;;;;;4.22;1.80;;;20.00;34.30;;;;;;5051961;28;20049;-73
2021/04/05 07:44:33;;;;;;;5.03;1.95;;;20.00;34.30;;;;;;5075494;28;20016;-74
2021/04/05 07:47:04;;;;;;;4.93;1.98;;;20.00;34.30;;;;;;5075620;28;20028;-73
2021/04/05 07:49:40;;;;;;;4.25;1.83;;;20.00;34.30;;;;;;5075521;28;20473;-73
2021/04/05 07:52:38;;;;;;;5.72;1.98;;;20.00;34.30;;;;;;5075496;28;20486;-74
2021/04/05 07:55:04;;;;;;;5.38;1.98;;;20.00;34.30;;;;;;5075527;28;20032;-74
2021/04/05 07:57:58;;;;;;;4.15;1.90;;;20.00;34.30;;;;;;5075494;28;20031;-74
2021/04/05 08:00:51;;;;;;;6.57;2.13;;;19.90;34.30;;;;;;5075082;28;20033;-74
2021/04/05 08:03:28;;;;;;;4.63;1.80;;;20.00;34.30;;;;;;5075413;28;20059;-74
2021/04/05 08:06:01;;;;;;;5.43;2.35;;;20.00;34.30;;;;;;5075318;28;20025;-74
2021/04/05 08:08:38;;;;;;;7.13;2.10;;;20.00;34.30;;;;;;5075223;28;20095;-74
2021/04/05 08:11:26;;;;;;;4.72;2.05;;;20.00;34.30;;;;;;5075301;28;20127;-74
2021/04/05 08:14:30;;;;;;;3.88;1.70;;;20.00;34.30;;;;;;5075261;28;20035;-74
2021/04/05 08:17:11;;;;;;;5.17;1.60;;;20.00;34.30;;;;;;5075383;28;20020;-73
2021/04/05 08:20:02;;;;;;;6.05;2.03;;;20.00;34.30;;;;;;5075098;28;20029;-74
2021/04/05 08:22:43;;;;;;;5.40;1.73;;;20.00;34.30;;;;;;5074574;28;20051;-75
2021/04/05 08:25:31;;;;;;;4.07;1.67;;;20.00;34.30;;;;;;5074745;28;20487;-74
2021/04/05 08:28:37;;;;;;;4.85;1.80;;;20.00;34.30;;;;;;5075028;28;20049;-74
2021/04/05 08:31:21;;;;;;;4.78;1.90;;;20.00;34.30;;;;;;5071690;28;20460;-74
2021/04/05 08:33:58;;;;;;;7.00;2.22;;;20.00;34.30;;;;;;5073978;28;20039;-74
2021/04/05 08:36:46;;;;;;;4.35;1.67;;;20.00;34.30;;;;;;5074804;28;20052;-73
2021/04/05 08:39:39;;;;;;;4.50;1.95;;;20.00;34.30;;;;;;5074681;28;20020;-74
2021/04/05 08:42:42;;;;;;;4.88;1.80;;;20.00;34.30;;;;;;5073954;28;20079;-74
2021/04/05 08:45:22;;;;;;;4.15;1.70;;;20.00;34.30;;;;;;5074437;28;20387;-73
2021/04/05 08:48:02;;;;;;;4.90;1.83;;;20.00;34.30;;;;;;5074205;28;20032;-74
2021/04/05 08:50:31;;;;;;;6.03;1.60;;;20.00;34.30;;;;;;5074310;28;20114;-74
2021/04/05 08:52:57;;;;;;;3.30;1.40;;;20.00;34.30;;;;;;5080698;28;20017;-75
2021/04/05 08:55:28;;;;;;;4.90;1.92;;;20.00;34.30;;;;;;5075658;28;20466;-74
2021/04/05 08:57:59;;;;;;;5.50;1.90;;;20.00;34.30;;;;;;5074782;28;20272;-74
2021/04/05 09:00:26;;;;;;;5.03;2.00;;;20.00;34.30;;;;;;5073897;28;20384;-74
2021/04/05 09:02:55;;;;;;;3.80;1.30;;;20.00;34.20;;;;;;5075677;28;20039;-74
2021/04/05 09:05:24;;;;;;;5.93;1.65;;;20.00;34.30;;;;;;5074869;28;20048;-74
2021/04/05 09:08:05;;;;;;;4.43;1.75;;;20.00;34.20;;;;;;5074356;28;20051;-73
2021/04/05 09:10:52;;;;;;;5.13;2.13;;;20.00;34.20;;;;;;5074386;28;20028;-74
2021/04/05 09:13:45;;;;;;;4.70;1.58;;;20.00;34.20;;;;;;5073886;28;20022;-73
2021/04/05 09:16:47;;;;;;;4.70;1.50;;;20.00;34.20;;;;;;5074538;28;20496;-73
2021/04/05 09:19:41;;;;;;;3.92;1.52;;;20.00;34.20;;;;;;5083075;28;20027;-74
2021/04/05 09:22:48;;;;;;;4.65;1.50;;;20.00;34.20;;;;;;5083307;28;20048;-73
2021/04/05 09:25:43;;;;;;;3.22;1.30;;;20.00;34.20;;;;;;5083685;28;20028;-73
2021/04/05 09:28:15;;;;;;;4.07;1.58;;;20.00;34.20;;;;;;5078691;28;20107;-74
2021/04/05 09:31:08;;;;;;;4.47;1.42;;;20.00;34.10;;;;;;5075873;28;20044;-73
2021/04/05 09:33:53;;;;;;;3.88;1.65;;;20.00;34.10;;;;;;5074758;28;20020;-72
2021/04/05 09:36:35;;;;;;;4.75;1.77;;;20.00;34.10;;;;;;5074254;28;20027;-73
2021/04/05 09:39:33;;;;;;;4.15;1.42;;;20.00;34.10;;;;;;5073362;28;20039;-73
2021/04/05 09:42:36;;;;;;;4.00;1.45;;;20.00;34.00;;;;;;5073139;28;20021;-73
2021/04/05 09:45:10;;;;;;;5.85;1.70;;;20.00;34.00;;;;;;5073232;28;20031;-74
2021/04/05 09:48:13;;;;;;;3.65;1.45;;;20.00;34.00;;;;;;5073881;28;20056;-74
2021/04/05 09:51:07;;;;;;;3.83;1.60;;;20.00;34.00;;;;;;5073509;28;20039;-74
2021/04/05 09:54:00;;;;;;;3.60;1.40;;;20.00;34.00;;;;;;5073440;28;20078;-74
2021/04/05 09:56:32;;;;;;;5.38;1.55;;;20.00;34.00;;;;;;5073864;28;20017;-74
2021/04/05 09:59:05;;;;;;;4.22;1.27;;;20.00;34.00;;;;;;5073498;28;20376;-75
2021/04/05 10:01:33;;;;;;;5.13;1.67;;;20.00;34.00;;;;;;5073622;28;20044;-74
2021/04/05 10:04:07;;;;;;;4.53;1.65;;;20.00;33.90;;;;;;5073046;28;20029;-74
2021/04/05 10:06:35;;;;;;;4.00;1.52;;;20.10;33.90;;;;;;5073117;28;20059;-74
2021/04/05 10:09:03;;;;;;;5.38;1.50;;;20.10;34.00;;;;;;5073167;28;20420;-74
2021/04/05 10:11:32;;;;;;;4.00;1.70;;;20.00;33.90;;;;;;5073493;28;20028;-74
2021/04/05 10:14:02;;;;;;;3.92;1.45;;;20.00;33.90;;;;;;5073155;28;20021;-74
2021/04/05 10:16:30;;;;;;;4.72;1.50;;;20.00;34.00;;;;;;5073231;28;20031;-74
2021/04/05 10:19:01;;;;;;;3.40;1.27;;;20.00;33.90;;;;;;5073137;28;20020;-73
2021/04/05 10:21:26;;;;;;;5.30;1.48;;;20.00;33.90;;;;;;5072893;28;20048;-74
2021/04/05 10:23:56;;;;;;;8.10;1.65;;;20.00;33.90;;;;;;5073233;28;20234;-73
2021/04/05 10:26:29;;;;;;;3.53;1.33;;;20.00;33.90;;;;;;5073396;28;20025;-74
2021/04/05 10:28:56;;;;;;;5.82;1.83;;;20.00;33.90;;;;;;5072887;28;20100;-74
2021/04/05 10:31:24;;;;;;;5.82;1.30;;;20.00;33.90;;;;;;5073202;28;20032;-73
2021/04/05 10:33:56;;;;;;;3.70;1.45;;;20.00;33.90;;;;;;5072994;28;20025;-73
2021/04/05 10:36:24;;;;;;;3.40;1.40;;;19.90;33.90;;;;;;5072858;28;20028;-73
2021/04/05 10:38:51;;;;;;;4.65;1.67;;;20.00;33.90;;;;;;5072949;28;20024;-74
2021/04/05 10:41:20;;;;;;;3.30;1.30;;;20.00;33.90;;;;;;5073138;28;20463;-74
2021/04/05 10:43:51;;;;;;;5.38;1.63;;;19.90;33.80;;;;;;5072731;28;20047;-74
2021/04/05 10:46:26;;;;;;;3.83;1.25;;;20.00;33.80;;;;;;5072779;28;20023;-74
2021/04/05 10:48:58;;;;;;;5.45;1.50;;;20.00;33.70;;;;;;5072715;28;20029;-74
2021/04/05 10:51:30;;;;;;;4.05;1.35;;;20.00;33.80;;;;;;5072763;28;20630;-73
2021/04/05 10:54:21;;;;;;;2.33;0.95;;;20.00;33.80;;;;;;5073078;28;20134;-73
2021/04/05 10:56:54;;;;;;;4.47;1.30;;;20.00;33.70;;;;;;5045902;28;20036;-73
2021/04/05 10:59:28;;;;;;;6.18;1.60;;;20.00;33.60;;;;;;5076960;28;20025;-74
2021/04/05 11:01:57;;;;;;;;;;;20.00;33.70;;;;;;5076962;28;20468;-74
2021/04/05 11:04:25;;;;;;;3.70;1.25;;;20.00;33.60;;;;;;5076333;28;19908;-74
2021/04/05 11:06:51;;;;;;;3.13;1.27;;;20.00;33.60;;;;;;5075070;28;20031;-74
2021/04/05 11:09:19;;;;;;;2.58;1.13;;;20.00;33.60;;;;;;5076175;28;20024;-74
2021/04/05 11:11:51;;;;;;;3.90;1.30;;;20.00;33.60;;;;;;5076539;28;20024;-73
2021/04/05 11:14:19;;;;;;;3.95;1.20;;;20.00;33.50;;;;;;5076611;28;20029;-73
2021/04/05 11:16:58;;;;;;;2.90;1.10;;;20.00;33.50;;;;;;5075741;28;20030;-73
2021/04/05 11:19:29;;;;;;;2.90;1.08;;;20.00;33.60;;;;;;5074782;28;20046;-73
2021/04/05 11:21:57;;;;;;;2.63;1.00;;;20.00;33.50;;;;;;5074472;28;20048;-73
2021/04/05 11:24:35;;;;;;;3.90;1.20;;;20.00;33.50;;;;;;5075790;28;20028;-73
2021/04/05 11:27:10;;;;;;;4.38;1.63;;;20.00;33.50;;;;;;5075760;28;20032;-73
2021/04/05 11:29:41;;;;;;;2.85;0.95;;;20.00;33.50;;;;;;5075947;28;20032;-73
2021/04/05 11:32:11;;;;;;;2.83;1.10;;;20.00;33.50;;;;;;5075908;28;20108;-73
2021/04/05 11:34:40;;;;;;;2.72;1.00;;;20.00;33.40;;;;;;5076271;28;20017;-73
2021/04/05 11:37:13;;;;;;;3.15;1.15;;;20.00;33.40;;;;;;5076066;28;20064;-74
2021/04/05 11:39:44;;;;;;;4.22;1.13;;;20.00;33.30;;;;;;5075790;28;20051;-72
2021/04/05 11:42:10;;;;;;;3.97;1.23;;;20.00;33.30;;;;;;5075734;28;20099;-73
2021/04/05 11:44:46;;;;;;;4.15;1.50;;;19.90;33.30;;;;;;5075536;28;20020;-73
2021/04/05 11:47:14;;;;;;;4.15;1.13;;;19.90;33.30;;;;;;5076006;28;20020;-73
2021/04/05 11:49:39;;;;;;;4.38;1.27;;;19.90;33.30;;;;;;5074363;28;20116;-74
2021/04/05 11:52:11;;;;;;;2.97;1.13;;;19.90;33.40;;;;;;5075664;28;20128;-73
2021/04/05 11:54:50;;;;;;;4.82;1.30;;;19.90;33.30;;;;;;5075505;28;20035;-73
2021/04/05 11:57:33;;;;;;;3.95;1.38;;;19.90;33.30;;;;;;5075563;28;20024;-73
2021/04/05 12:00:24;;;;;;;4.13;1.30;;;20.00;33.30;;;;;;5076094;28;20020;-73
2021/04/05 12:02:56;;;;;;;3.25;1.20;;;20.00;33.10;;;;;;5075384;28;20021;-73
2021/04/05 12:05:28;;;;;;;3.85;1.15;;;20.00;33.10;;;;;;5075392;28;20088;-73
2021/04/05 12:08:22;;;;;;;3.42;1.30;;;20.00;33.00;;;;;;5075088;28;20028;-73
2021/04/05 12:10:50;;;;;;;3.95;1.33;;;20.20;32.90;;;;;;5048963;28;20400;-73
2021/04/05 12:13:22;;;;;;;2.80;1.05;;;20.30;32.80;;;;;;5081058;28;20074;-73
2021/04/05 12:15:54;;;;;;;2.85;1.17;;;20.40;32.60;;;;;;5075729;28;20087;-74
2021/04/05 12:18:22;;;;;;;3.08;1.25;;;20.30;32.80;;;;;;5075131;28;20074;-73
2021/04/05 12:20:57;;;;;;;4.28;1.30;;;20.30;32.80;;;;;;5074994;28;20108;-73
2021/04/05 12:23:23;;;;;;;4.18;1.23;;;20.20;32.80;;;;;;5075326;28;20032;-74
2021/04/05 12:25:51;;;;;;;3.70;1.10;;;20.20;32.90;;;;;;5074940;28;20089;-74
2021/04/05 12:28:17;;;;;;;3.90;1.08;;;20.10;32.70;;;;;;5075114;28;20025;-73
2021/04/05 12:30:44;;;;;;;4.70;1.50;;;20.10;32.80;;;;;;5074346;28;20040;-73
2021/04/05 12:33:14;;;;;;;4.72;1.27;;;20.00;32.80;;;;;;5074709;28;20041;-73
2021/04/05 12:35:42;;;;;;;3.30;1.23;;;20.00;32.90;;;;;;5074952;28;20078;-73
2021/04/05 12:38:10;;;;;;;4.57;1.17;;;20.00;32.80;;;;;;5074908;28;20023;-75
2021/04/05 12:40:38;;;;;;;4.15;1.50;;;20.00;32.60;;;;;;5074648;28;20472;-74
2021/04/05 12:43:11;;;;;;;4.45;1.27;;;20.00;32.70;;;;;;5074286;28;20028;-73
2021/04/05 12:45:40;;;;;;;2.73;0.93;;;20.10;32.70;;;;;;5074617;28;20036;-74
2021/04/05 12:48:08;;;;;;;4.40;1.27;;;20.10;32.60;;;;;;5074407;28;20036;-73
2021/04/05 12:50:35;;;;;;;4.00;1.25;;;20.30;32.40;;;;;;5074319;28;20068;-74
2021/04/05 12:53:06;;;;;;;2.50;1.00;;;20.30;32.30;;;;;;5074428;28;20498;-74
2021/04/05 12:55:43;;;;;;;3.70;1.30;;;20.40;32.30;;;;;;5074174;28;20029;-74
2021/04/05 12:58:09;;;;;;;4.38;1.27;;;20.50;32.30;;;;;;5072952;28;20028;-75
2021/04/05 13:00:40;;;;;;;4.07;1.10;;;20.60;32.10;;;;;;5073923;28;20473;-72
2021/04/05 13:03:12;;;;;;;3.95;1.23;;;20.70;32.00;;;;;;5074130;28;20039;-74
2021/04/05 13:06:00;;;;;;;3.10;0.85;;;20.60;32.00;;;;;;5074171;28;20028;-74
2021/04/05 13:08:29;;;;;;;4.15;1.23;;;20.70;32.00;;;;;;5073845;28;20025;-74
2021/04/05 13:11:17;;;;;;;2.72;0.90;;;20.60;32.10;;;;;;5074176;28;20036;-74
2021/04/05 13:14:04;;;;;;;4.45;1.00;;;20.70;32.00;;;;;;5074233;28;20043;-74
2021/04/05 13:16:35;;;;;;;5.30;0.90;;;20.70;32.10;;;;;;5074357;28;20038;-74
2021/04/05 13:19:10;;;;;;;4.40;1.20;;;20.70;32.00;;;;;;5076225;28;20114;-74
2021/04/05 13:21:40;;;;;;;4.20;1.17;;;20.70;31.80;;;;;;5079010;28;20048;-74
2021/04/05 13:24:11;;;;;;;3.28;1.27;;;20.70;31.80;;;;;;5074527;28;20079;-74